Airfield :
LOGIN :

Register | Disclaimer

   EN    FR    IT 

 










Legend :    VFR   Marginal VFR   IFR   Intensive IFR   Very Intensive IFR
Visi :
Ceiling :
>= 8 km
>= 3000ft
5 to 8 km
1000 to 3000 ft
1500m to 5 km
500 to 1000 ft
800 to 1500m
200 to 500 ft
< 800m
< 200 ft
Symbols :   Thunderstorms  Fog  Heavy snow  Heavy precipitations  Wind > 20 kt
SIGMETs :     Misc.  Thunderstorms  Icing  Turbulence  Mountain Waves  Volcanic Ashes







- Airport Elevation : 1910 ft
- IATA code : RDZ
- Download approach charts


LFCR - Rodez

CURRENT METAR :
  • 250630Z AUTO VRB02KT CAVOK 18/10 Q1018 NOSIG

EXPIRED METARs :
  • 250600Z AUTO VRB03KT CAVOK 16/10 Q1018 NOSIG
  • 250530Z AUTO 09003KT CAVOK 15/09 Q1018 NOSIG
  • 250500Z AUTO VRB02KT CAVOK 13/09 Q1018 NOSIG
  • 250430Z AUTO 07003KT CAVOK 12/09 Q1018 NOSIG
  • 250400Z AUTO 10003KT 070V140 CAVOK 12/09 Q1018 NOSIG

TAF TAF LFCR
Valid from the 25 at 06:00 until the 26 at 06:00 UTC


250500Z 2506/2606 VRB03KT CAVOK
BECMG 2520/2522 13010KT
No reported NOTAMs for that airfield.



MET'MAP, your aeronautical weather chart ! - Copyright ORBIFLY December 2007 - Disclaimer

ORBIFLY MET'MAP TEAM :

Programming & Development : Alexandra Zaïnal
Concept & Development : Baudouin d'Aumeries
Co-Development & Prog : Marc-Olivier Méhu
Technical & hardware support : Manuel Goepfert

Contact : metmap@orbifly.com




SOURCES & CREDITS :

   NOAA